createdAt,value
2018-03-06T00:00:02.517Z,17.67
2018-03-06T00:01:02.509Z,17.67
2018-03-06T00:02:02.501Z,17.67
2018-03-06T00:03:02.535Z,17.66
2018-03-06T00:04:02.511Z,17.67
2018-03-06T00:05:02.503Z,17.65
2018-03-06T00:06:02.513Z,17.65
2018-03-06T00:07:02.508Z,17.65
2018-03-06T00:08:02.507Z,17.64
2018-03-06T00:09:02.506Z,17.63
2018-03-06T00:10:02.506Z,17.62
2018-03-06T00:11:02.517Z,17.62
2018-03-06T00:12:02.498Z,17.61
2018-03-06T00:13:02.496Z,17.61
2018-03-06T00:14:02.537Z,17.62
2018-03-06T00:15:02.517Z,17.6
2018-03-06T00:16:02.496Z,17.61
2018-03-06T00:17:02.519Z,17.6
2018-03-06T00:18:02.499Z,17.58
2018-03-06T00:19:02.774Z,17.58
2018-03-06T00:20:02.504Z,17.59
2018-03-06T00:21:02.498Z,17.58
2018-03-06T00:22:02.528Z,17.58
2018-03-06T00:23:02.575Z,17.58
2018-03-06T00:24:02.524Z,17.58
2018-03-06T00:25:02.511Z,17.56
2018-03-06T00:26:02.499Z,17.59
2018-03-06T00:27:02.502Z,17.57
2018-03-06T00:28:02.522Z,17.58
2018-03-06T00:29:02.549Z,17.58
2018-03-06T00:30:02.501Z,17.57
2018-03-06T00:31:02.496Z,17.54
2018-03-06T00:32:02.508Z,17.54
2018-03-06T00:33:02.569Z,17.54
2018-03-06T00:34:02.507Z,17.54
2018-03-06T00:35:02.506Z,17.53
2018-03-06T00:36:02.497Z,17.54
2018-03-06T00:37:02.508Z,17.53
2018-03-06T00:38:02.479Z,17.53
2018-03-06T00:39:02.529Z,17.52
2018-03-06T00:40:02.501Z,17.52
2018-03-06T00:41:02.503Z,17.53
2018-03-06T00:42:02.505Z,17.54
2018-03-06T00:43:02.491Z,17.52
2018-03-06T00:44:02.495Z,17.53
2018-03-06T00:45:02.480Z,17.5
2018-03-06T00:46:02.500Z,17.49
2018-03-06T00:47:02.489Z,17.49
2018-03-06T00:48:02.503Z,17.49
2018-03-06T00:49:02.495Z,17.47
2018-03-06T00:50:02.511Z,17.46
2018-03-06T00:51:02.491Z,17.47
2018-03-06T00:52:02.492Z,17.47
2018-03-06T00:53:02.476Z,17.47
2018-03-06T00:54:02.499Z,17.45
2018-03-06T00:55:02.503Z,17.46
2018-03-06T00:56:02.486Z,17.45
2018-03-06T00:57:02.474Z,17.45
2018-03-06T00:58:02.557Z,17.45
2018-03-06T00:59:02.493Z,17.45
2018-03-06T01:00:02.482Z,17.45
2018-03-06T01:01:02.481Z,17.44
2018-03-06T01:02:02.483Z,17.46
2018-03-06T01:03:02.499Z,17.45
2018-03-06T01:04:02.550Z,17.43
2018-03-06T01:05:02.550Z,17.44
2018-03-06T01:06:02.545Z,17.44
2018-03-06T01:07:02.503Z,17.44
2018-03-06T01:08:02.493Z,17.43
2018-03-06T01:09:02.494Z,17.42
2018-03-06T01:10:02.504Z,17.42
2018-03-06T01:11:02.483Z,17.42
2018-03-06T01:12:02.553Z,17.4
2018-03-06T01:13:02.500Z,17.39
2018-03-06T01:14:02.485Z,17.4
2018-03-06T01:15:02.510Z,17.4
2018-03-06T01:16:02.503Z,17.39
2018-03-06T01:17:02.505Z,17.39
2018-03-06T01:18:02.497Z,17.4
2018-03-06T01:19:02.499Z,17.38
2018-03-06T01:20:02.498Z,17.39
2018-03-06T01:21:02.478Z,17.39
2018-03-06T01:22:02.485Z,17.39
2018-03-06T01:23:02.492Z,17.39
2018-03-06T01:24:02.492Z,17.38
2018-03-06T01:25:02.533Z,17.4
2018-03-06T01:26:02.501Z,17.38
2018-03-06T01:27:02.589Z,17.39
2018-03-06T01:28:02.485Z,17.36
2018-03-06T01:29:02.479Z,17.35
2018-03-06T01:30:02.479Z,17.36
2018-03-06T01:31:02.477Z,17.36
2018-03-06T01:32:02.574Z,17.36
2018-03-06T01:33:02.483Z,17.37
2018-03-06T01:34:02.488Z,17.36
2018-03-06T01:35:02.489Z,17.36
2018-03-06T01:36:02.481Z,17.34
2018-03-06T01:37:02.495Z,17.35
2018-03-06T01:38:02.528Z,17.35
2018-03-06T01:39:02.485Z,17.34
2018-03-06T01:40:02.533Z,17.33
2018-03-06T01:41:02.474Z,17.33
2018-03-06T01:42:02.478Z,17.34
2018-03-06T01:43:02.523Z,17.34
2018-03-06T01:44:02.477Z,17.32
2018-03-06T01:45:02.478Z,17.31
2018-03-06T01:46:02.483Z,17.31
2018-03-06T01:47:02.512Z,17.31
2018-03-06T01:48:02.542Z,17.31
2018-03-06T01:49:02.494Z,17.31
2018-03-06T01:50:02.479Z,17.3
2018-03-06T01:51:02.469Z,17.3
2018-03-06T01:52:02.524Z,17.29
2018-03-06T01:53:02.585Z,17.29
2018-03-06T01:54:02.439Z,17.29
2018-03-06T01:55:02.489Z,17.29
2018-03-06T01:56:02.480Z,17.31
2018-03-06T01:57:02.470Z,17.29
2018-03-06T01:58:02.465Z,17.28
2018-03-06T01:59:02.432Z,17.27
2018-03-06T02:00:02.527Z,17.28
2018-03-06T02:01:02.482Z,17.27
2018-03-06T02:02:02.477Z,17.28
2018-03-06T02:03:02.459Z,17.28
2018-03-06T02:04:02.471Z,17.27
2018-03-06T02:05:02.468Z,17.26
2018-03-06T02:06:02.466Z,17.27
2018-03-06T02:07:02.469Z,17.26
2018-03-06T02:08:02.463Z,17.25
2018-03-06T02:09:02.456Z,17.25
2018-03-06T02:10:02.470Z,17.24
2018-03-06T02:11:02.724Z,17.24
2018-03-06T02:12:02.456Z,17.25
2018-03-06T02:13:02.505Z,17.26
2018-03-06T02:14:02.483Z,17.25
2018-03-06T02:15:02.459Z,17.24
2018-03-06T02:16:02.497Z,17.24
2018-03-06T02:17:02.472Z,17.24
2018-03-06T02:18:02.463Z,17.23
2018-03-06T02:19:02.462Z,17.22
2018-03-06T02:20:02.513Z,17.24
2018-03-06T02:21:02.468Z,17.22
2018-03-06T02:22:02.761Z,17.22
2018-03-06T02:23:02.465Z,17.21
2018-03-06T02:24:02.487Z,17.23
2018-03-06T02:25:02.459Z,17.22
2018-03-06T02:26:02.472Z,17.21
2018-03-06T02:27:02.471Z,17.21
2018-03-06T02:28:02.479Z,17.23
2018-03-06T02:29:02.444Z,17.21
2018-03-06T02:30:02.466Z,17.2
2018-03-06T02:31:02.470Z,17.2
2018-03-06T02:32:02.473Z,17.2
2018-03-06T02:33:02.459Z,17.2
2018-03-06T02:34:02.456Z,17.2
2018-03-06T02:35:02.454Z,17.18
2018-03-06T02:36:02.455Z,17.17
2018-03-06T02:37:02.461Z,17.19
2018-03-06T02:38:02.457Z,17.18
2018-03-06T02:39:02.483Z,17.18
2018-03-06T02:40:02.489Z,17.16
2018-03-06T02:41:02.470Z,17.17
2018-03-06T02:42:02.457Z,17.16
2018-03-06T02:43:02.457Z,17.16
2018-03-06T02:44:02.477Z,17.16
2018-03-06T02:45:02.459Z,17.16
2018-03-06T02:46:02.459Z,17.15
2018-03-06T02:47:02.481Z,17.15
2018-03-06T02:48:02.447Z,17.14
2018-03-06T02:49:02.455Z,17.14
2018-03-06T02:50:02.721Z,17.14
2018-03-06T02:51:02.452Z,17.15
2018-03-06T02:52:02.460Z,17.14
2018-03-06T02:53:02.467Z,17.14
2018-03-06T02:54:02.455Z,17.14
2018-03-06T02:55:02.464Z,17.12
2018-03-06T02:56:02.430Z,17.13
2018-03-06T02:57:02.447Z,17.13
2018-03-06T02:58:02.450Z,17.13
2018-03-06T02:59:02.432Z,17.12
2018-03-06T03:00:02.507Z,17.12
2018-03-06T03:01:02.455Z,17.12
2018-03-06T03:02:02.457Z,17.11
2018-03-06T03:03:02.457Z,17.11
2018-03-06T03:04:02.443Z,17.12
2018-03-06T03:05:02.457Z,17.1
2018-03-06T03:06:02.472Z,17.11
2018-03-06T03:07:02.466Z,17.11
2018-03-06T03:08:02.442Z,17.11
2018-03-06T03:09:02.440Z,17.11
2018-03-06T03:10:02.451Z,17.1
2018-03-06T03:11:02.484Z,17.1
2018-03-06T03:12:02.437Z,17.09
2018-03-06T03:13:02.446Z,17.09
2018-03-06T03:14:02.434Z,17.08
2018-03-06T03:15:02.453Z,17.07
2018-03-06T03:16:02.481Z,17.07
2018-03-06T03:17:02.448Z,17.07
2018-03-06T03:18:02.443Z,17.07
2018-03-06T03:19:02.435Z,17.06
2018-03-06T03:20:02.441Z,17.06
2018-03-06T03:21:02.442Z,17.05
2018-03-06T03:22:02.451Z,17.06
2018-03-06T03:23:02.436Z,17.04
2018-03-06T03:24:02.438Z,17.06
2018-03-06T03:25:02.449Z,17.05
2018-03-06T03:26:02.437Z,17.05
2018-03-06T03:27:02.726Z,17.06
2018-03-06T03:28:02.444Z,17.06
2018-03-06T03:29:02.443Z,17.05
2018-03-06T03:30:02.441Z,17.05
2018-03-06T03:31:02.456Z,17.05
2018-03-06T03:32:02.473Z,17.05
2018-03-06T03:33:02.457Z,17.04
2018-03-06T03:34:02.440Z,17.04
2018-03-06T03:35:02.455Z,17.03
2018-03-06T03:36:02.425Z,17.03
2018-03-06T03:37:02.430Z,17.04
2018-03-06T03:38:02.422Z,17.02
2018-03-06T03:39:02.461Z,17.02
2018-03-06T03:40:02.478Z,17.03
2018-03-06T03:41:02.435Z,17.04
2018-03-06T03:42:02.428Z,17.02
2018-03-06T03:43:02.475Z,17.02
2018-03-06T03:44:02.428Z,17.01
2018-03-06T03:45:02.439Z,16.99
2018-03-06T03:46:02.437Z,17
2018-03-06T03:47:02.432Z,16.99
2018-03-06T03:48:02.436Z,17
2018-03-06T03:49:02.440Z,17
2018-03-06T03:50:02.435Z,16.99
2018-03-06T03:51:02.452Z,17
2018-03-06T03:52:02.432Z,17
2018-03-06T03:53:02.487Z,16.98
2018-03-06T03:54:02.540Z,16.98
2018-03-06T03:55:02.435Z,16.98
2018-03-06T03:56:02.479Z,16.99
2018-03-06T03:57:02.444Z,17.01
2018-03-06T03:58:02.427Z,16.98
2018-03-06T03:59:02.425Z,16.98
2018-03-06T04:00:02.433Z,16.97
2018-03-06T04:01:02.451Z,16.97
2018-03-06T04:02:02.434Z,16.96
2018-03-06T04:03:02.425Z,16.97
2018-03-06T04:04:02.426Z,16.96
2018-03-06T04:05:02.423Z,16.96
2018-03-06T04:06:02.441Z,16.95
2018-03-06T04:07:02.439Z,16.96
2018-03-06T04:08:02.437Z,16.97
2018-03-06T04:09:02.426Z,16.97
2018-03-06T04:10:02.420Z,16.95
2018-03-06T04:11:02.439Z,16.94
2018-03-06T04:12:02.433Z,16.95
2018-03-06T04:13:02.434Z,16.94
2018-03-06T04:14:02.425Z,16.95
2018-03-06T04:15:02.416Z,16.94
2018-03-06T04:16:02.449Z,16.94
2018-03-06T04:17:02.439Z,16.93
2018-03-06T04:18:02.422Z,16.91
2018-03-06T04:19:02.427Z,16.92
2018-03-06T04:20:02.428Z,16.92
2018-03-06T04:21:02.415Z,16.92
2018-03-06T04:22:02.424Z,16.91
2018-03-06T04:23:02.426Z,16.9
2018-03-06T04:24:02.435Z,16.9
2018-03-06T04:25:02.815Z,16.91
2018-03-06T04:26:02.418Z,16.89
2018-03-06T04:27:02.418Z,16.9
2018-03-06T04:28:02.416Z,16.9
2018-03-06T04:29:02.414Z,16.9
2018-03-06T04:30:02.420Z,16.9
2018-03-06T04:31:02.416Z,16.89
2018-03-06T04:32:02.427Z,16.89
2018-03-06T04:33:02.425Z,16.89
2018-03-06T04:34:02.430Z,16.89
2018-03-06T04:35:02.418Z,16.88
2018-03-06T04:36:02.416Z,16.88
2018-03-06T04:37:02.418Z,16.89
2018-03-06T04:38:02.482Z,16.88
2018-03-06T04:39:02.404Z,16.87
2018-03-06T04:40:02.390Z,16.88
2018-03-06T04:41:02.403Z,16.88
2018-03-06T04:42:02.480Z,16.87
2018-03-06T04:43:02.438Z,16.88
2018-03-06T04:44:02.402Z,16.87
2018-03-06T04:45:02.429Z,16.86
2018-03-06T04:46:02.420Z,16.86
2018-03-06T04:47:02.434Z,16.86
2018-03-06T04:48:02.429Z,16.86
2018-03-06T04:49:02.445Z,16.88
2018-03-06T04:50:02.418Z,16.87
2018-03-06T04:51:02.439Z,16.86
2018-03-06T04:52:02.444Z,16.88
2018-03-06T04:53:02.689Z,16.88
2018-03-06T04:54:02.429Z,16.89
2018-03-06T04:55:02.414Z,16.89
2018-03-06T04:56:02.412Z,16.9
2018-03-06T04:57:02.412Z,16.9
2018-03-06T04:58:02.428Z,16.92
2018-03-06T04:59:02.393Z,16.92
2018-03-06T05:00:02.413Z,16.92
2018-03-06T05:01:02.436Z,16.91
2018-03-06T05:02:02.427Z,16.9
2018-03-06T05:03:02.432Z,16.91
2018-03-06T05:04:02.410Z,16.91
2018-03-06T05:05:02.431Z,16.92
2018-03-06T05:06:02.388Z,16.92
2018-03-06T05:07:02.411Z,16.92
2018-03-06T05:08:02.421Z,16.93
2018-03-06T05:09:02.433Z,16.94
2018-03-06T05:10:02.404Z,16.95
2018-03-06T05:11:02.409Z,16.96
2018-03-06T05:12:02.403Z,16.95
2018-03-06T05:13:02.403Z,16.97
2018-03-06T05:14:02.434Z,16.99
2018-03-06T05:15:02.394Z,16.99
2018-03-06T05:16:02.424Z,17.01
2018-03-06T05:17:02.440Z,17.01
2018-03-06T05:18:02.412Z,17.03
2018-03-06T05:19:02.722Z,17.05
2018-03-06T05:20:02.408Z,17.06
2018-03-06T05:21:02.390Z,17.08
2018-03-06T05:22:02.393Z,17.1
2018-03-06T05:23:02.435Z,17.11
2018-03-06T05:24:02.435Z,17.13
2018-03-06T05:25:02.397Z,17.15
2018-03-06T05:26:02.408Z,17.17
2018-03-06T05:27:02.395Z,17.18
2018-03-06T05:28:02.394Z,17.19
2018-03-06T05:29:02.411Z,17.21
2018-03-06T05:30:02.421Z,17.23
2018-03-06T05:31:02.404Z,17.25
2018-03-06T05:32:02.397Z,17.27
2018-03-06T05:33:02.385Z,17.28
2018-03-06T05:34:02.416Z,17.3
2018-03-06T05:35:02.421Z,17.31
2018-03-06T05:36:02.381Z,17.33
2018-03-06T05:37:02.389Z,17.34
2018-03-06T05:38:02.433Z,17.36
2018-03-06T05:39:02.478Z,17.38
2018-03-06T05:40:02.706Z,17.39
2018-03-06T05:41:02.390Z,17.39
2018-03-06T05:42:02.394Z,17.41
2018-03-06T05:43:02.447Z,17.42
2018-03-06T05:44:02.421Z,17.43
2018-03-06T05:45:02.418Z,17.45
2018-03-06T05:46:02.395Z,17.46
2018-03-06T05:47:02.397Z,17.47
2018-03-06T05:48:02.408Z,17.48
2018-03-06T05:49:02.412Z,17.5
2018-03-06T05:50:02.682Z,17.5
2018-03-06T05:51:02.405Z,17.52
2018-03-06T05:52:02.391Z,17.53
2018-03-06T05:53:02.401Z,17.55
2018-03-06T05:54:02.440Z,17.55
2018-03-06T05:55:02.528Z,17.56
2018-03-06T05:56:02.412Z,17.56
2018-03-06T05:57:02.641Z,17.58
2018-03-06T05:58:02.384Z,17.59
2018-03-06T05:59:02.401Z,17.6
2018-03-06T06:00:02.407Z,17.61
2018-03-06T06:01:02.406Z,17.62
2018-03-06T06:02:02.409Z,17.63
2018-03-06T06:03:02.380Z,17.65
2018-03-06T06:04:02.385Z,17.64
2018-03-06T06:05:02.386Z,17.66
2018-03-06T06:06:02.382Z,17.67
2018-03-06T06:07:02.377Z,17.68
2018-03-06T06:08:02.403Z,17.69
2018-03-06T06:09:02.405Z,17.7
2018-03-06T06:10:02.381Z,17.71
2018-03-06T06:11:02.394Z,17.73
2018-03-06T06:12:02.391Z,17.74
2018-03-06T06:13:02.396Z,17.74
2018-03-06T06:14:02.438Z,17.76
2018-03-06T06:15:02.382Z,17.76
2018-03-06T06:16:02.379Z,17.77
2018-03-06T06:17:02.384Z,17.78
2018-03-06T06:18:02.406Z,17.79
2018-03-06T06:19:02.388Z,17.8
2018-03-06T06:20:02.382Z,17.8
2018-03-06T06:21:02.409Z,17.81
2018-03-06T06:22:02.391Z,17.83
2018-03-06T06:23:02.374Z,17.83
2018-03-06T06:24:02.373Z,17.85
2018-03-06T06:25:02.392Z,17.86
2018-03-06T06:26:02.393Z,17.87
2018-03-06T06:27:02.376Z,17.87
2018-03-06T06:28:02.718Z,17.89
2018-03-06T06:29:02.373Z,17.89
2018-03-06T06:30:02.376Z,17.89
2018-03-06T06:31:02.389Z,17.92
2018-03-06T06:32:02.388Z,17.92
2018-03-06T06:33:02.403Z,17.92
2018-03-06T06:34:02.375Z,17.93
2018-03-06T06:35:02.378Z,17.93
2018-03-06T06:36:02.382Z,17.96
2018-03-06T06:37:02.374Z,17.97
2018-03-06T06:38:02.647Z,17.97
2018-03-06T06:39:02.390Z,17.97
2018-03-06T06:40:02.368Z,17.99
2018-03-06T06:41:02.420Z,18
2018-03-06T06:42:02.372Z,18.01
2018-03-06T06:43:02.458Z,18.01
2018-03-06T06:44:02.417Z,18.01
2018-03-06T06:45:02.390Z,18.03
2018-03-06T06:46:02.369Z,18.03
2018-03-06T06:47:02.386Z,18.04
2018-03-06T06:48:02.386Z,18.05
2018-03-06T06:49:02.378Z,18.07
2018-03-06T06:50:02.408Z,18.07
2018-03-06T06:51:02.387Z,18.08
2018-03-06T06:52:02.414Z,18.09
2018-03-06T06:53:02.385Z,18.11
2018-03-06T06:54:02.375Z,18.11
2018-03-06T06:55:02.374Z,18.11
2018-03-06T06:56:02.370Z,18.13
2018-03-06T06:57:02.393Z,18.14
2018-03-06T06:58:02.390Z,18.15
2018-03-06T06:59:02.366Z,18.16
2018-03-06T07:00:02.332Z,18.16
2018-03-06T07:01:02.397Z,18.17
2018-03-06T07:02:02.364Z,18.18
2018-03-06T07:03:02.380Z,18.19
2018-03-06T07:04:02.380Z,18.2
2018-03-06T07:05:02.367Z,18.2
2018-03-06T07:06:02.439Z,18.21
2018-03-06T07:07:02.372Z,18.21
2018-03-06T07:08:02.363Z,18.21
2018-03-06T07:09:02.375Z,18.23
2018-03-06T07:10:02.362Z,18.22
2018-03-06T07:11:02.410Z,18.23
2018-03-06T07:12:02.363Z,18.22
2018-03-06T07:13:02.365Z,18.23
2018-03-06T07:14:02.360Z,18.24
2018-03-06T07:15:02.366Z,18.23
2018-03-06T07:16:02.356Z,18.24
2018-03-06T07:17:02.641Z,18.24
2018-03-06T07:18:02.393Z,18.24
2018-03-06T07:19:02.364Z,18.25
2018-03-06T07:20:02.383Z,18.26
2018-03-06T07:21:02.363Z,18.26
2018-03-06T07:22:02.667Z,18.27
2018-03-06T07:23:02.346Z,18.26
2018-03-06T07:24:02.370Z,18.27
2018-03-06T07:25:02.359Z,18.26
2018-03-06T07:26:02.371Z,18.28
2018-03-06T07:27:02.643Z,18.29
2018-03-06T07:28:02.356Z,18.29
2018-03-06T07:29:02.364Z,18.3
2018-03-06T07:30:02.352Z,18.31
2018-03-06T07:31:02.359Z,18.3
2018-03-06T07:32:02.392Z,18.32
2018-03-06T07:33:02.357Z,18.32
2018-03-06T07:34:02.372Z,18.33
2018-03-06T07:35:02.358Z,18.33
2018-03-06T07:36:02.344Z,18.35
2018-03-06T07:37:02.395Z,18.34
2018-03-06T07:38:02.359Z,18.34
2018-03-06T07:39:02.352Z,18.36
2018-03-06T07:40:02.356Z,18.36
2018-03-06T07:41:02.354Z,18.37
2018-03-06T07:42:02.422Z,18.36
2018-03-06T07:43:02.359Z,18.37
2018-03-06T07:44:02.354Z,18.38
2018-03-06T07:45:02.359Z,18.39
2018-03-06T07:46:02.341Z,18.39
2018-03-06T07:47:02.397Z,18.4
2018-03-06T07:48:02.348Z,18.41
2018-03-06T07:49:02.359Z,18.42
2018-03-06T07:50:02.342Z,18.43
2018-03-06T07:51:02.345Z,18.43
2018-03-06T07:52:02.370Z,18.43
2018-03-06T07:53:02.350Z,18.44
2018-03-06T07:54:02.353Z,18.44
2018-03-06T07:55:02.388Z,18.44
2018-03-06T07:56:02.445Z,18.46
2018-03-06T07:57:02.371Z,18.46
2018-03-06T07:58:02.348Z,18.47
2018-03-06T07:59:02.406Z,18.47
2018-03-06T08:00:02.368Z,18.48
2018-03-06T08:01:02.360Z,18.48
2018-03-06T08:02:02.343Z,18.49
2018-03-06T08:03:02.341Z,18.5
2018-03-06T08:04:02.375Z,18.49
2018-03-06T08:05:02.350Z,18.5
2018-03-06T08:06:02.355Z,18.51
2018-03-06T08:07:02.346Z,18.5
2018-03-06T08:08:02.385Z,18.5
2018-03-06T08:09:02.388Z,18.5
2018-03-06T08:10:02.358Z,18.52
2018-03-06T08:11:02.347Z,18.51
2018-03-06T08:12:02.366Z,18.51
2018-03-06T08:13:02.342Z,18.51
2018-03-06T08:14:02.373Z,18.53
2018-03-06T08:15:02.341Z,18.51
2018-03-06T08:16:02.346Z,18.5
2018-03-06T08:17:02.347Z,18.5
2018-03-06T08:18:02.338Z,18.51
2018-03-06T08:19:02.328Z,18.52
2018-03-06T08:20:02.328Z,18.52
2018-03-06T08:21:02.341Z,18.54
2018-03-06T08:22:02.342Z,18.53
2018-03-06T08:23:02.357Z,18.54
2018-03-06T08:24:02.341Z,18.54
2018-03-06T08:25:02.336Z,18.54
2018-03-06T08:26:02.350Z,18.55
2018-03-06T08:27:02.337Z,18.55
2018-03-06T08:28:02.335Z,18.57
2018-03-06T08:29:02.326Z,18.56
2018-03-06T08:30:02.339Z,18.55
2018-03-06T08:31:02.321Z,18.58
2018-03-06T08:32:02.334Z,18.58
2018-03-06T08:33:02.317Z,18.58
2018-03-06T08:34:02.323Z,18.59
2018-03-06T08:35:02.334Z,18.59
2018-03-06T08:36:02.364Z,18.59
2018-03-06T08:37:02.320Z,18.61
2018-03-06T08:38:02.339Z,18.61
2018-03-06T08:39:02.332Z,18.61
2018-03-06T08:40:02.332Z,18.62
2018-03-06T08:41:02.356Z,18.62
2018-03-06T08:42:02.322Z,18.62
2018-03-06T08:43:02.338Z,18.63
2018-03-06T08:44:02.324Z,18.65
2018-03-06T08:45:02.328Z,18.64
2018-03-06T08:46:02.345Z,18.65
2018-03-06T08:47:02.342Z,18.66
2018-03-06T08:48:02.332Z,18.67
2018-03-06T08:49:02.337Z,18.67
2018-03-06T08:50:02.319Z,18.71
2018-03-06T08:51:02.349Z,18.69
2018-03-06T08:52:02.326Z,18.69
2018-03-06T08:53:02.333Z,18.72
2018-03-06T08:54:02.328Z,18.71
2018-03-06T08:55:02.315Z,18.71
2018-03-06T08:56:02.328Z,18.72
2018-03-06T08:57:02.371Z,18.74
2018-03-06T08:58:02.330Z,18.72
2018-03-06T08:59:02.330Z,18.73
2018-03-06T09:00:02.327Z,18.75
2018-03-06T09:01:02.334Z,18.74
2018-03-06T09:02:02.354Z,18.73
2018-03-06T09:03:02.324Z,18.73
2018-03-06T09:04:02.323Z,18.73
2018-03-06T09:05:02.310Z,18.73
2018-03-06T09:06:02.318Z,18.72
2018-03-06T09:07:02.354Z,18.73
2018-03-06T09:08:02.320Z,18.73
2018-03-06T09:09:02.317Z,18.74
2018-03-06T09:10:02.328Z,18.73
2018-03-06T09:11:02.312Z,18.75
2018-03-06T09:12:02.595Z,18.75
2018-03-06T09:13:02.315Z,18.73
2018-03-06T09:14:02.316Z,18.73
2018-03-06T09:15:02.318Z,18.74
2018-03-06T09:16:02.326Z,18.73
2018-03-06T09:17:02.344Z,18.74
2018-03-06T09:18:02.347Z,18.72
2018-03-06T09:19:02.322Z,18.73
2018-03-06T09:20:02.325Z,18.73
2018-03-06T09:21:02.316Z,18.73
2018-03-06T09:22:02.327Z,18.72
2018-03-06T09:23:02.302Z,18.73
2018-03-06T09:24:02.320Z,18.71
2018-03-06T09:25:02.323Z,18.71
2018-03-06T09:26:02.313Z,18.72
2018-03-06T09:27:02.309Z,18.72
2018-03-06T09:28:02.317Z,18.73
2018-03-06T09:29:02.325Z,18.72
2018-03-06T09:30:02.318Z,18.72
2018-03-06T09:31:02.322Z,18.73
2018-03-06T09:32:02.313Z,18.73
2018-03-06T09:33:02.317Z,18.74
2018-03-06T09:34:02.341Z,18.75
2018-03-06T09:35:02.298Z,18.75
2018-03-06T09:36:02.320Z,18.75
2018-03-06T09:37:02.315Z,18.75
2018-03-06T09:38:02.322Z,18.75
2018-03-06T09:39:02.315Z,18.76
2018-03-06T09:40:02.314Z,18.78
2018-03-06T09:41:02.302Z,18.77
2018-03-06T09:42:02.305Z,18.76
2018-03-06T09:43:02.330Z,18.77
2018-03-06T09:44:02.318Z,18.78
2018-03-06T09:45:02.298Z,18.8
2018-03-06T09:46:02.323Z,18.79
2018-03-06T09:47:02.332Z,18.8
2018-03-06T09:48:02.302Z,18.8
2018-03-06T09:49:02.307Z,18.81
2018-03-06T09:50:02.336Z,18.82
2018-03-06T09:51:02.289Z,18.83
2018-03-06T09:52:02.309Z,18.83
2018-03-06T09:53:02.314Z,18.82
2018-03-06T09:54:02.295Z,18.83
2018-03-06T09:55:02.308Z,18.84
2018-03-06T09:56:02.406Z,18.84
2018-03-06T09:57:02.420Z,18.85
2018-03-06T09:58:02.313Z,18.85
2018-03-06T09:59:02.292Z,18.86
2018-03-06T10:00:02.309Z,18.87
2018-03-06T10:01:02.305Z,18.89
2018-03-06T10:02:02.301Z,18.88
2018-03-06T10:03:02.327Z,18.89
2018-03-06T10:04:02.301Z,18.89
2018-03-06T10:05:02.332Z,18.89
2018-03-06T10:06:02.315Z,18.89
2018-03-06T10:07:02.311Z,18.91
2018-03-06T10:08:02.301Z,18.89
2018-03-06T10:09:02.580Z,18.91
2018-03-06T10:10:02.318Z,18.89
2018-03-06T10:11:02.307Z,18.9
2018-03-06T10:12:02.293Z,18.9
2018-03-06T10:13:02.298Z,18.89
2018-03-06T10:14:02.335Z,18.9
2018-03-06T10:15:02.313Z,18.9
2018-03-06T10:16:02.301Z,18.91
2018-03-06T10:17:02.291Z,18.9
2018-03-06T10:18:02.320Z,18.91
2018-03-06T10:19:02.299Z,18.89
2018-03-06T10:20:02.309Z,18.91
2018-03-06T10:21:02.309Z,18.91
2018-03-06T10:22:02.342Z,18.9
2018-03-06T10:23:02.298Z,18.89
2018-03-06T10:24:02.289Z,18.91
2018-03-06T10:25:02.286Z,18.9
2018-03-06T10:26:02.327Z,18.9
2018-03-06T10:27:02.284Z,18.9
2018-03-06T10:28:02.328Z,18.9
2018-03-06T10:29:02.299Z,18.89
2018-03-06T10:30:02.282Z,18.9
2018-03-06T10:31:02.286Z,18.92
2018-03-06T10:32:02.340Z,18.91
2018-03-06T10:33:02.304Z,18.9
2018-03-06T10:34:02.349Z,18.91
2018-03-06T10:35:02.302Z,18.91
2018-03-06T10:36:02.292Z,18.9
2018-03-06T10:37:02.282Z,18.9
2018-03-06T10:38:02.280Z,18.9
2018-03-06T10:39:02.285Z,18.9
2018-03-06T10:40:02.342Z,18.91
2018-03-06T10:41:02.300Z,18.91
2018-03-06T10:42:02.291Z,18.94
2018-03-06T10:43:02.284Z,18.94
2018-03-06T10:44:02.284Z,18.92
2018-03-06T10:45:02.292Z,18.93
2018-03-06T10:46:02.284Z,18.93
2018-03-06T10:47:02.295Z,18.96
2018-03-06T10:48:02.287Z,18.96
2018-03-06T10:49:02.316Z,18.95
2018-03-06T10:50:02.298Z,18.96
2018-03-06T10:51:02.286Z,18.98
2018-03-06T10:52:02.292Z,18.98
2018-03-06T10:53:02.293Z,18.98
2018-03-06T10:54:02.306Z,18.99
2018-03-06T10:55:02.294Z,18.99
2018-03-06T10:56:02.291Z,18.98
2018-03-06T10:57:02.274Z,18.98
2018-03-06T10:58:02.291Z,18.98
2018-03-06T10:59:02.309Z,19
2018-03-06T11:00:02.297Z,19
2018-03-06T11:01:02.292Z,18.99
2018-03-06T11:02:02.299Z,18.98
2018-03-06T11:03:02.285Z,18.99
2018-03-06T11:04:02.301Z,18.99
2018-03-06T11:05:02.305Z,19
2018-03-06T11:06:02.269Z,18.99
2018-03-06T11:07:02.292Z,18.99
2018-03-06T11:08:02.265Z,19
2018-03-06T11:09:02.290Z,18.98
2018-03-06T11:10:02.315Z,18.99
2018-03-06T11:11:02.281Z,18.99
2018-03-06T11:12:02.279Z,18.99
2018-03-06T11:13:02.292Z,18.98
2018-03-06T11:14:02.267Z,18.98
2018-03-06T11:15:02.319Z,18.98
2018-03-06T11:16:02.303Z,18.98
2018-03-06T11:17:02.276Z,18.96
2018-03-06T11:18:02.279Z,18.99
2018-03-06T11:19:02.307Z,18.99
2018-03-06T11:20:02.286Z,18.98
2018-03-06T11:21:02.321Z,18.99
2018-03-06T11:22:02.280Z,18.98
2018-03-06T11:23:02.270Z,18.98
2018-03-06T11:24:02.283Z,18.97
2018-03-06T11:25:02.308Z,18.97
2018-03-06T11:26:02.310Z,18.97
2018-03-06T11:27:02.261Z,18.97
2018-03-06T11:28:02.566Z,18.97
2018-03-06T11:29:02.279Z,18.96
2018-03-06T11:30:02.284Z,18.97
2018-03-06T11:31:02.300Z,18.96
2018-03-06T11:32:02.277Z,18.96
2018-03-06T11:33:02.319Z,18.95
2018-03-06T11:34:02.276Z,18.97
2018-03-06T11:35:02.266Z,18.97
2018-03-06T11:36:02.490Z,18.96
2018-03-06T11:37:02.292Z,18.97
2018-03-06T11:38:02.273Z,18.94
2018-03-06T11:39:02.272Z,18.96
2018-03-06T11:40:02.268Z,18.94
2018-03-06T11:41:02.279Z,18.96
2018-03-06T11:42:02.280Z,18.95
2018-03-06T11:43:02.291Z,18.95
2018-03-06T11:44:02.325Z,18.95
2018-03-06T11:45:02.266Z,18.96
2018-03-06T11:46:02.272Z,18.96
2018-03-06T11:47:02.254Z,18.96
2018-03-06T11:48:02.557Z,18.96
2018-03-06T11:49:02.277Z,18.96
2018-03-06T11:50:02.262Z,18.96
2018-03-06T11:51:02.275Z,18.97
2018-03-06T11:52:02.259Z,18.97
2018-03-06T11:53:02.313Z,18.99
2018-03-06T11:54:02.272Z,18.98
2018-03-06T11:55:02.261Z,18.98
2018-03-06T11:56:02.270Z,18.98
2018-03-06T11:57:02.321Z,19
2018-03-06T11:58:02.397Z,19
2018-03-06T11:59:02.289Z,19.02
2018-03-06T12:00:02.270Z,19
2018-03-06T12:01:02.252Z,19.01
2018-03-06T12:02:02.344Z,19.01
2018-03-06T12:03:02.280Z,19.03
2018-03-06T12:04:02.259Z,19.01
2018-03-06T12:05:02.246Z,19.03
2018-03-06T12:06:02.264Z,19.03
2018-03-06T12:07:02.283Z,19.02
2018-03-06T12:08:02.286Z,19.03
2018-03-06T12:09:02.276Z,19.03
2018-03-06T12:10:02.285Z,19.03
2018-03-06T12:11:02.267Z,19.05
2018-03-06T12:12:02.279Z,19.03
2018-03-06T12:13:02.290Z,19.04
2018-03-06T12:14:02.279Z,19.04
2018-03-06T12:15:02.259Z,19.05
2018-03-06T12:16:02.250Z,19.04
2018-03-06T12:17:02.250Z,19.03
2018-03-06T12:18:02.527Z,19.03
2018-03-06T12:19:02.255Z,19.03
2018-03-06T12:20:02.263Z,19.03
2018-03-06T12:21:02.274Z,19.03
2018-03-06T12:22:02.238Z,19.02
2018-03-06T12:23:02.284Z,19.02
2018-03-06T12:24:02.273Z,19.03
2018-03-06T12:25:02.264Z,19.03
2018-03-06T12:26:02.273Z,19.04
2018-03-06T12:27:02.262Z,19.03
2018-03-06T12:28:02.254Z,19.03
2018-03-06T12:29:02.256Z,19.03
2018-03-06T12:30:02.255Z,19.04
2018-03-06T12:31:02.283Z,19.03
2018-03-06T12:32:02.273Z,19.03
2018-03-06T12:33:02.250Z,19.04
2018-03-06T12:34:02.269Z,19.04
2018-03-06T12:35:02.293Z,19.03
2018-03-06T12:36:02.252Z,19.04
2018-03-06T12:37:02.251Z,19.03
2018-03-06T12:38:02.242Z,19.03
2018-03-06T12:39:02.241Z,19.02
2018-03-06T12:40:02.261Z,19.02
2018-03-06T12:41:02.254Z,19.04
2018-03-06T12:42:02.254Z,19.04
2018-03-06T12:43:02.235Z,19.03
2018-03-06T12:44:02.286Z,19.02
2018-03-06T12:45:02.316Z,19.05
2018-03-06T12:46:02.262Z,19.07
2018-03-06T12:47:02.262Z,19.06
2018-03-06T12:48:02.272Z,19.06
2018-03-06T12:49:02.278Z,19.05
2018-03-06T12:50:02.249Z,19.05
2018-03-06T12:51:02.233Z,19.07
2018-03-06T12:52:02.258Z,19.08
2018-03-06T12:53:02.252Z,19.08
2018-03-06T12:54:02.272Z,19.09
2018-03-06T12:55:02.247Z,19.1
2018-03-06T12:56:02.238Z,19.1